sensor_id;sensor_type;location;lat;lon;timestamp;P1;durP1;ratioP1;P2;durP2;ratioP2
40322;SDS011;26030;51.164;17.100;2023-05-03T00:04:51;35.30;;;20.60;;
40322;SDS011;26030;51.164;17.100;2023-05-03T00:09:57;31.70;;;21.20;;
40322;SDS011;26030;51.164;17.100;2023-05-03T00:15:03;30.70;;;20.00;;
40322;SDS011;26030;51.164;17.100;2023-05-03T00:20:07;31.40;;;20.60;;
40322;SDS011;26030;51.164;17.100;2023-05-03T00:25:12;26.50;;;19.10;;
40322;SDS011;26030;51.164;17.100;2023-05-03T00:30:18;26.00;;;19.20;;
40322;SDS011;26030;51.164;17.100;2023-05-03T00:35:22;25.20;;;18.80;;
40322;SDS011;26030;51.164;17.100;2023-05-03T00:40:27;29.20;;;18.50;;
40322;SDS011;26030;51.164;17.100;2023-05-03T00:45:32;26.70;;;18.30;;
40322;SDS011;26030;51.164;17.100;2023-05-03T00:50:37;25.30;;;18.10;;
40322;SDS011;26030;51.164;17.100;2023-05-03T00:55:43;27.70;;;19.00;;
40322;SDS011;26030;51.164;17.100;2023-05-03T01:00:48;23.60;;;17.00;;
40322;SDS011;26030;51.164;17.100;2023-05-03T01:06:09;25.10;;;17.60;;
40322;SDS011;26030;51.164;17.100;2023-05-03T01:11:23;24.90;;;16.80;;
40322;SDS011;26030;51.164;17.100;2023-05-03T01:16:38;22.10;;;16.10;;
40322;SDS011;26030;51.164;17.100;2023-05-03T01:21:46;22.50;;;16.30;;
40322;SDS011;26030;51.164;17.100;2023-05-03T01:26:55;23.20;;;16.50;;
40322;SDS011;26030;51.164;17.100;2023-05-03T01:32:02;22.30;;;15.90;;
40322;SDS011;26030;51.164;17.100;2023-05-03T01:37:09;22.60;;;16.00;;
40322;SDS011;26030;51.164;17.100;2023-05-03T01:42:15;20.90;;;15.10;;
40322;SDS011;26030;51.164;17.100;2023-05-03T01:47:21;18.20;;;13.50;;
40322;SDS011;26030;51.164;17.100;2023-05-03T01:52:26;18.50;;;13.60;;
40322;SDS011;26030;51.164;17.100;2023-05-03T01:57:31;18.40;;;13.90;;
40322;SDS011;26030;51.164;17.100;2023-05-03T02:02:35;19.00;;;13.50;;
40322;SDS011;26030;51.164;17.100;2023-05-03T02:07:39;15.50;;;12.10;;
40322;SDS011;26030;51.164;17.100;2023-05-03T02:12:43;15.30;;;11.40;;
40322;SDS011;26030;51.164;17.100;2023-05-03T02:17:49;15.30;;;12.00;;
40322;SDS011;26030;51.164;17.100;2023-05-03T02:22:53;13.40;;;11.40;;
40322;SDS011;26030;51.164;17.100;2023-05-03T02:27:58;13.60;;;11.40;;
40322;SDS011;26030;51.164;17.100;2023-05-03T02:33:02;14.50;;;11.40;;
40322;SDS011;26030;51.164;17.100;2023-05-03T02:38:07;14.20;;;10.80;;
40322;SDS011;26030;51.164;17.100;2023-05-03T02:43:12;14.30;;;11.20;;
40322;SDS011;26030;51.164;17.100;2023-05-03T02:48:16;13.90;;;10.90;;
40322;SDS011;26030;51.164;17.100;2023-05-03T02:53:21;14.50;;;11.40;;
40322;SDS011;26030;51.164;17.100;2023-05-03T02:58:27;13.30;;;10.30;;
40322;SDS011;26030;51.164;17.100;2023-05-03T03:03:32;15.30;;;10.40;;
40322;SDS011;26030;51.164;17.100;2023-05-03T03:08:36;12.80;;;9.70;;
40322;SDS011;26030;51.164;17.100;2023-05-03T03:13:41;12.00;;;10.00;;
40322;SDS011;26030;51.164;17.100;2023-05-03T03:18:46;13.70;;;9.90;;
40322;SDS011;26030;51.164;17.100;2023-05-03T03:23:51;10.70;;;9.30;;
40322;SDS011;26030;51.164;17.100;2023-05-03T03:28:55;12.20;;;9.60;;
40322;SDS011;26030;51.164;17.100;2023-05-03T03:33:59;12.50;;;9.40;;
40322;SDS011;26030;51.164;17.100;2023-05-03T03:39:05;11.00;;;9.00;;
40322;SDS011;26030;51.164;17.100;2023-05-03T03:44:09;10.00;;;8.70;;
40322;SDS011;26030;51.164;17.100;2023-05-03T03:49:14;11.10;;;8.50;;
40322;SDS011;26030;51.164;17.100;2023-05-03T03:54:18;12.70;;;8.70;;
40322;SDS011;26030;51.164;17.100;2023-05-03T03:59:23;9.80;;;8.50;;
40322;SDS011;26030;51.164;17.100;2023-05-03T04:04:28;10.80;;;8.20;;
40322;SDS011;26030;51.164;17.100;2023-05-03T04:09:34;11.40;;;8.70;;
40322;SDS011;26030;51.164;17.100;2023-05-03T04:14:39;10.60;;;8.20;;
40322;SDS011;26030;51.164;17.100;2023-05-03T04:19:43;8.80;;;7.50;;
40322;SDS011;26030;51.164;17.100;2023-05-03T04:24:49;9.10;;;7.80;;
40322;SDS011;26030;51.164;17.100;2023-05-03T04:29:53;9.90;;;8.10;;
40322;SDS011;26030;51.164;17.100;2023-05-03T04:34:59;8.80;;;7.80;;
40322;SDS011;26030;51.164;17.100;2023-05-03T04:40:05;9.80;;;7.80;;
40322;SDS011;26030;51.164;17.100;2023-05-03T04:45:14;10.80;;;7.90;;
40322;SDS011;26030;51.164;17.100;2023-05-03T04:50:19;8.20;;;7.40;;
40322;SDS011;26030;51.164;17.100;2023-05-03T04:55:25;8.20;;;7.30;;
40322;SDS011;26030;51.164;17.100;2023-05-03T05:00:30;8.20;;;6.80;;
40322;SDS011;26030;51.164;17.100;2023-05-03T05:05:39;9.60;;;7.70;;
40322;SDS011;26030;51.164;17.100;2023-05-03T05:10:45;7.80;;;7.00;;
40322;SDS011;26030;51.164;17.100;2023-05-03T05:15:51;9.10;;;7.10;;
40322;SDS011;26030;51.164;17.100;2023-05-03T05:21:04;8.30;;;7.20;;
40322;SDS011;26030;51.164;17.100;2023-05-03T05:26:10;8.60;;;7.00;;
40322;SDS011;26030;51.164;17.100;2023-05-03T05:31:16;7.90;;;7.10;;
40322;SDS011;26030;51.164;17.100;2023-05-03T05:36:21;8.20;;;6.80;;
40322;SDS011;26030;51.164;17.100;2023-05-03T05:41:26;7.90;;;7.00;;
40322;SDS011;26030;51.164;17.100;2023-05-03T05:46:30;9.20;;;6.10;;
40322;SDS011;26030;51.164;17.100;2023-05-03T05:51:35;6.70;;;6.10;;
40322;SDS011;26030;51.164;17.100;2023-05-03T05:56:39;6.50;;;5.90;;
40322;SDS011;26030;51.164;17.100;2023-05-03T06:01:44;7.30;;;6.00;;
40322;SDS011;26030;51.164;17.100;2023-05-03T06:06:52;7.10;;;6.10;;
40322;SDS011;26030;51.164;17.100;2023-05-03T06:11:57;6.70;;;6.10;;
40322;SDS011;26030;51.164;17.100;2023-05-03T06:17:04;6.10;;;5.60;;
40322;SDS011;26030;51.164;17.100;2023-05-03T06:22:08;6.40;;;5.70;;
40322;SDS011;26030;51.164;17.100;2023-05-03T06:27:13;6.90;;;5.20;;
40322;SDS011;26030;51.164;17.100;2023-05-03T06:32:18;8.20;;;5.80;;
40322;SDS011;26030;51.164;17.100;2023-05-03T06:37:22;5.60;;;5.00;;
40322;SDS011;26030;51.164;17.100;2023-05-03T06:42:26;6.80;;;5.70;;
40322;SDS011;26030;51.164;17.100;2023-05-03T06:47:41;6.70;;;5.70;;
40322;SDS011;26030;51.164;17.100;2023-05-03T06:52:46;6.00;;;5.40;;
40322;SDS011;26030;51.164;17.100;2023-05-03T06:57:51;6.00;;;5.40;;
40322;SDS011;26030;51.164;17.100;2023-05-03T07:02:55;6.20;;;5.60;;
40322;SDS011;26030;51.164;17.100;2023-05-03T07:08:00;6.60;;;5.30;;
40322;SDS011;26030;51.164;17.100;2023-05-03T07:13:08;8.90;;;5.40;;
40322;SDS011;26030;51.164;17.100;2023-05-03T07:18:12;5.90;;;5.40;;
40322;SDS011;26030;51.164;17.100;2023-05-03T07:23:17;6.60;;;5.20;;
40322;SDS011;26030;51.164;17.100;2023-05-03T07:28:21;6.10;;;4.80;;
40322;SDS011;26030;51.164;17.100;2023-05-03T07:33:26;4.90;;;4.40;;
40322;SDS011;26030;51.164;17.100;2023-05-03T07:38:30;5.40;;;4.90;;
40322;SDS011;26030;51.164;17.100;2023-05-03T07:43:37;4.90;;;4.50;;
40322;SDS011;26030;51.164;17.100;2023-05-03T07:48:42;24.60;;;15.00;;
40322;SDS011;26030;51.164;17.100;2023-05-03T07:53:46;81.70;;;42.20;;
40322;SDS011;26030;51.164;17.100;2023-05-03T07:58:50;119.80;;;58.80;;
40322;SDS011;26030;51.164;17.100;2023-05-03T08:04:11;129.10;;;64.90;;
40322;SDS011;26030;51.164;17.100;2023-05-03T08:09:16;142.00;;;71.70;;
40322;SDS011;26030;51.164;17.100;2023-05-03T08:14:22;109.20;;;56.20;;
40322;SDS011;26030;51.164;17.100;2023-05-03T08:19:26;105.30;;;50.70;;
40322;SDS011;26030;51.164;17.100;2023-05-03T08:24:33;94.50;;;46.00;;
40322;SDS011;26030;51.164;17.100;2023-05-03T08:29:38;90.50;;;47.10;;
40322;SDS011;26030;51.164;17.100;2023-05-03T08:34:42;77.90;;;42.40;;
40322;SDS011;26030;51.164;17.100;2023-05-03T08:39:47;74.60;;;41.70;;
40322;SDS011;26030;51.164;17.100;2023-05-03T08:44:52;78.60;;;42.30;;
40322;SDS011;26030;51.164;17.100;2023-05-03T08:49:58;71.90;;;39.90;;
40322;SDS011;26030;51.164;17.100;2023-05-03T08:55:03;67.90;;;37.60;;
40322;SDS011;26030;51.164;17.100;2023-05-03T09:00:11;72.70;;;39.60;;
40322;SDS011;26030;51.164;17.100;2023-05-03T09:10:22;72.00;;;35.60;;
40322;SDS011;26030;51.164;17.100;2023-05-03T09:15:30;63.40;;;34.40;;
40322;SDS011;26030;51.164;17.100;2023-05-03T09:20:37;65.90;;;31.50;;
40322;SDS011;26030;51.164;17.100;2023-05-03T09:25:49;76.80;;;33.50;;
40322;SDS011;26030;51.164;17.100;2023-05-03T09:31:05;59.50;;;31.10;;
40322;SDS011;26030;51.164;17.100;2023-05-03T09:36:10;55.00;;;31.60;;
40322;SDS011;26030;51.164;17.100;2023-05-03T09:41:14;54.20;;;28.10;;
40322;SDS011;26030;51.164;17.100;2023-05-03T09:46:19;52.20;;;28.90;;
40322;SDS011;26030;51.164;17.100;2023-05-03T09:51:24;48.50;;;27.10;;
40322;SDS011;26030;51.164;17.100;2023-05-03T09:56:30;57.80;;;29.00;;
40322;SDS011;26030;51.164;17.100;2023-05-03T10:01:35;55.00;;;27.40;;
40322;SDS011;26030;51.164;17.100;2023-05-03T10:06:40;49.90;;;27.60;;
40322;SDS011;26030;51.164;17.100;2023-05-03T10:11:51;47.30;;;26.10;;
40322;SDS011;26030;51.164;17.100;2023-05-03T10:17:02;40.50;;;24.90;;
40322;SDS011;26030;51.164;17.100;2023-05-03T10:22:09;42.30;;;25.40;;
40322;SDS011;26030;51.164;17.100;2023-05-03T10:27:15;42.40;;;25.00;;
40322;SDS011;26030;51.164;17.100;2023-05-03T10:32:28;38.70;;;23.80;;
40322;SDS011;26030;51.164;17.100;2023-05-03T10:37:33;42.10;;;23.30;;
40322;SDS011;26030;51.164;17.100;2023-05-03T10:42:53;35.70;;;22.00;;
40322;SDS011;26030;51.164;17.100;2023-05-03T10:53:34;32.20;;;20.30;;
40322;SDS011;26030;51.164;17.100;2023-05-03T10:58:45;37.60;;;20.80;;
40322;SDS011;26030;51.164;17.100;2023-05-03T11:04:11;49.60;;;21.70;;
40322;SDS011;26030;51.164;17.100;2023-05-03T11:09:15;34.80;;;18.80;;
40322;SDS011;26030;51.164;17.100;2023-05-03T11:14:20;28.20;;;17.50;;
40322;SDS011;26030;51.164;17.100;2023-05-03T11:19:50;33.10;;;17.50;;
40322;SDS011;26030;51.164;17.100;2023-05-03T11:24:55;27.60;;;15.50;;
40322;SDS011;26030;51.164;17.100;2023-05-03T11:29:59;32.00;;;16.00;;
40322;SDS011;26030;51.164;17.100;2023-05-03T11:35:07;18.80;;;13.70;;
40322;SDS011;26030;51.164;17.100;2023-05-03T11:40:15;23.20;;;13.70;;
40322;SDS011;26030;51.164;17.100;2023-05-03T11:45:27;20.30;;;13.90;;
40322;SDS011;26030;51.164;17.100;2023-05-03T11:50:50;22.00;;;12.80;;
40322;SDS011;26030;51.164;17.100;2023-05-03T11:55:57;22.80;;;12.80;;
40322;SDS011;26030;51.164;17.100;2023-05-03T12:01:01;18.60;;;12.60;;
40322;SDS011;26030;51.164;17.100;2023-05-03T12:06:06;18.90;;;11.70;;
40322;SDS011;26030;51.164;17.100;2023-05-03T12:11:12;22.30;;;12.50;;
40322;SDS011;26030;51.164;17.100;2023-05-03T12:16:19;20.70;;;12.00;;
40322;SDS011;26030;51.164;17.100;2023-05-03T12:21:47;20.00;;;11.50;;
40322;SDS011;26030;51.164;17.100;2023-05-03T12:26:54;17.10;;;11.60;;
40322;SDS011;26030;51.164;17.100;2023-05-03T12:32:00;17.20;;;11.20;;
40322;SDS011;26030;51.164;17.100;2023-05-03T12:37:07;17.70;;;11.60;;
40322;SDS011;26030;51.164;17.100;2023-05-03T12:42:14;15.60;;;10.50;;
40322;SDS011;26030;51.164;17.100;2023-05-03T12:47:18;15.30;;;10.50;;
40322;SDS011;26030;51.164;17.100;2023-05-03T12:52:31;14.10;;;10.60;;
40322;SDS011;26030;51.164;17.100;2023-05-03T12:57:41;12.90;;;9.90;;
40322;SDS011;26030;51.164;17.100;2023-05-03T13:02:48;13.70;;;10.20;;
40322;SDS011;26030;51.164;17.100;2023-05-03T13:07:56;16.90;;;9.80;;
40322;SDS011;26030;51.164;17.100;2023-05-03T13:13:08;14.20;;;9.90;;
40322;SDS011;26030;51.164;17.100;2023-05-03T13:18:14;16.50;;;9.70;;
40322;SDS011;26030;51.164;17.100;2023-05-03T13:23:19;11.20;;;8.40;;
40322;SDS011;26030;51.164;17.100;2023-05-03T13:28:23;12.30;;;8.50;;
40322;SDS011;26030;51.164;17.100;2023-05-03T13:33:28;11.40;;;8.50;;
40322;SDS011;26030;51.164;17.100;2023-05-03T13:38:32;13.80;;;9.10;;
40322;SDS011;26030;51.164;17.100;2023-05-03T13:43:36;12.30;;;8.90;;
40322;SDS011;26030;51.164;17.100;2023-05-03T13:48:41;12.80;;;8.00;;
40322;SDS011;26030;51.164;17.100;2023-05-03T13:53:46;14.20;;;8.10;;
40322;SDS011;26030;51.164;17.100;2023-05-03T13:58:50;14.00;;;8.00;;
40322;SDS011;26030;51.164;17.100;2023-05-03T14:03:54;27.70;;;7.70;;
40322;SDS011;26030;51.164;17.100;2023-05-03T14:08:59;14.40;;;8.70;;
40322;SDS011;26030;51.164;17.100;2023-05-03T14:14:05;16.30;;;12.30;;
40322;SDS011;26030;51.164;17.100;2023-05-03T14:19:10;17.00;;;11.20;;
40322;SDS011;26030;51.164;17.100;2023-05-03T14:24:15;13.90;;;11.20;;
40322;SDS011;26030;51.164;17.100;2023-05-03T14:29:20;13.10;;;10.70;;
40322;SDS011;26030;51.164;17.100;2023-05-03T14:34:25;14.60;;;11.00;;
40322;SDS011;26030;51.164;17.100;2023-05-03T14:39:31;93.80;;;49.10;;
40322;SDS011;26030;51.164;17.100;2023-05-03T14:44:36;206.30;;;107.60;;
40322;SDS011;26030;51.164;17.100;2023-05-03T14:49:40;205.00;;;104.70;;
40322;SDS011;26030;51.164;17.100;2023-05-03T14:54:45;330.80;;;169.10;;
40322;SDS011;26030;51.164;17.100;2023-05-03T14:59:51;186.70;;;96.10;;
40322;SDS011;26030;51.164;17.100;2023-05-03T15:04:55;169.40;;;89.30;;
40322;SDS011;26030;51.164;17.100;2023-05-03T15:10:00;149.70;;;73.50;;
40322;SDS011;26030;51.164;17.100;2023-05-03T15:15:09;107.10;;;61.80;;
40322;SDS011;26030;51.164;17.100;2023-05-03T15:20:15;107.40;;;59.10;;
40322;SDS011;26030;51.164;17.100;2023-05-03T15:25:19;112.90;;;58.20;;
40322;SDS011;26030;51.164;17.100;2023-05-03T15:30:24;91.60;;;51.10;;
40322;SDS011;26030;51.164;17.100;2023-05-03T15:35:28;94.40;;;49.00;;
40322;SDS011;26030;51.164;17.100;2023-05-03T15:40:34;83.10;;;46.30;;
40322;SDS011;26030;51.164;17.100;2023-05-03T15:45:38;84.70;;;46.90;;
40322;SDS011;26030;51.164;17.100;2023-05-03T15:50:43;88.30;;;46.90;;
40322;SDS011;26030;51.164;17.100;2023-05-03T15:55:47;78.70;;;43.80;;
40322;SDS011;26030;51.164;17.100;2023-05-03T16:00:53;69.90;;;41.30;;
40322;SDS011;26030;51.164;17.100;2023-05-03T16:05:59;49.80;;;28.90;;
40322;SDS011;26030;51.164;17.100;2023-05-03T16:11:06;47.10;;;26.60;;
40322;SDS011;26030;51.164;17.100;2023-05-03T16:16:11;47.90;;;27.40;;
40322;SDS011;26030;51.164;17.100;2023-05-03T16:21:16;45.20;;;22.80;;
40322;SDS011;26030;51.164;17.100;2023-05-03T16:26:21;45.80;;;22.30;;
40322;SDS011;26030;51.164;17.100;2023-05-03T16:31:28;29.90;;;17.70;;
40322;SDS011;26030;51.164;17.100;2023-05-03T16:36:33;35.40;;;18.70;;
40322;SDS011;26030;51.164;17.100;2023-05-03T16:41:48;30.10;;;16.30;;
40322;SDS011;26030;51.164;17.100;2023-05-03T16:46:54;27.60;;;16.60;;
40322;SDS011;26030;51.164;17.100;2023-05-03T16:51:58;30.50;;;17.30;;
40322;SDS011;26030;51.164;17.100;2023-05-03T16:57:03;25.10;;;17.40;;
40322;SDS011;26030;51.164;17.100;2023-05-03T17:02:07;28.80;;;18.10;;
40322;SDS011;26030;51.164;17.100;2023-05-03T17:07:12;32.10;;;18.20;;
40322;SDS011;26030;51.164;17.100;2023-05-03T17:12:19;25.20;;;17.20;;
40322;SDS011;26030;51.164;17.100;2023-05-03T17:17:24;25.40;;;18.20;;
40322;SDS011;26030;51.164;17.100;2023-05-03T17:22:28;26.80;;;17.50;;
40322;SDS011;26030;51.164;17.100;2023-05-03T17:27:33;23.40;;;16.50;;
40322;SDS011;26030;51.164;17.100;2023-05-03T17:32:37;22.30;;;14.30;;
40322;SDS011;26030;51.164;17.100;2023-05-03T17:37:43;21.40;;;14.90;;
40322;SDS011;26030;51.164;17.100;2023-05-03T17:42:49;23.60;;;14.20;;
40322;SDS011;26030;51.164;17.100;2023-05-03T17:47:53;20.80;;;14.00;;
40322;SDS011;26030;51.164;17.100;2023-05-03T17:52:58;25.30;;;14.30;;
40322;SDS011;26030;51.164;17.100;2023-05-03T17:58:04;21.00;;;13.60;;
40322;SDS011;26030;51.164;17.100;2023-05-03T18:03:09;18.20;;;12.80;;
40322;SDS011;26030;51.164;17.100;2023-05-03T18:08:17;21.10;;;12.70;;
40322;SDS011;26030;51.164;17.100;2023-05-03T18:13:22;21.10;;;12.50;;
40322;SDS011;26030;51.164;17.100;2023-05-03T18:18:30;19.10;;;12.30;;
40322;SDS011;26030;51.164;17.100;2023-05-03T18:23:35;16.90;;;11.90;;
40322;SDS011;26030;51.164;17.100;2023-05-03T18:28:40;16.90;;;11.00;;
40322;SDS011;26030;51.164;17.100;2023-05-03T18:33:46;25.00;;;12.50;;
40322;SDS011;26030;51.164;17.100;2023-05-03T18:38:56;19.30;;;10.40;;
40322;SDS011;26030;51.164;17.100;2023-05-03T18:44:04;14.60;;;10.30;;
40322;SDS011;26030;51.164;17.100;2023-05-03T18:49:16;15.90;;;10.40;;
40322;SDS011;26030;51.164;17.100;2023-05-03T18:54:22;15.80;;;9.50;;
40322;SDS011;26030;51.164;17.100;2023-05-03T18:59:29;16.00;;;9.10;;
40322;SDS011;26030;51.164;17.100;2023-05-03T19:04:35;11.80;;;8.90;;
40322;SDS011;26030;51.164;17.100;2023-05-03T19:09:42;250.70;;;167.80;;
40322;SDS011;26030;51.164;17.100;2023-05-03T19:14:47;205.50;;;146.70;;
40322;SDS011;26030;51.164;17.100;2023-05-03T19:19:54;173.30;;;115.70;;
40322;SDS011;26030;51.164;17.100;2023-05-03T19:24:59;156.10;;;107.80;;
40322;SDS011;26030;51.164;17.100;2023-05-03T19:30:08;135.40;;;92.50;;
40322;SDS011;26030;51.164;17.100;2023-05-03T19:35:15;126.20;;;87.50;;
40322;SDS011;26030;51.164;17.100;2023-05-03T19:40:23;122.00;;;86.90;;
40322;SDS011;26030;51.164;17.100;2023-05-03T19:45:31;115.10;;;84.40;;
40322;SDS011;26030;51.164;17.100;2023-05-03T19:50:37;119.70;;;82.10;;
40322;SDS011;26030;51.164;17.100;2023-05-03T19:56:01;110.20;;;78.20;;
40322;SDS011;26030;51.164;17.100;2023-05-03T20:01:07;106.60;;;78.60;;
40322;SDS011;26030;51.164;17.100;2023-05-03T20:06:13;108.90;;;74.10;;
40322;SDS011;26030;51.164;17.100;2023-05-03T20:11:18;101.60;;;72.20;;
40322;SDS011;26030;51.164;17.100;2023-05-03T20:16:28;92.40;;;68.60;;
40322;SDS011;26030;51.164;17.100;2023-05-03T20:21:37;93.90;;;69.90;;
40322;SDS011;26030;51.164;17.100;2023-05-03T20:26:46;84.50;;;62.60;;
40322;SDS011;26030;51.164;17.100;2023-05-03T20:31:51;64.70;;;47.60;;
40322;SDS011;26030;51.164;17.100;2023-05-03T20:36:56;71.20;;;51.30;;
40322;SDS011;26030;51.164;17.100;2023-05-03T20:42:01;101.40;;;67.60;;
40322;SDS011;26030;51.164;17.100;2023-05-03T20:47:06;222.50;;;128.70;;
40322;SDS011;26030;51.164;17.100;2023-05-03T20:52:11;228.50;;;125.80;;
40322;SDS011;26030;51.164;17.100;2023-05-03T20:57:15;217.00;;;119.60;;
40322;SDS011;26030;51.164;17.100;2023-05-03T21:02:20;168.80;;;100.00;;
40322;SDS011;26030;51.164;17.100;2023-05-03T21:07:26;172.70;;;103.30;;
40322;SDS011;26030;51.164;17.100;2023-05-03T21:12:32;164.70;;;98.70;;
40322;SDS011;26030;51.164;17.100;2023-05-03T21:17:36;146.20;;;90.50;;
40322;SDS011;26030;51.164;17.100;2023-05-03T21:22:41;152.80;;;87.20;;
40322;SDS011;26030;51.164;17.100;2023-05-03T21:27:46;154.80;;;88.20;;
40322;SDS011;26030;51.164;17.100;2023-05-03T21:32:50;141.60;;;83.10;;
40322;SDS011;26030;51.164;17.100;2023-05-03T21:37:57;141.90;;;83.50;;
40322;SDS011;26030;51.164;17.100;2023-05-03T21:43:03;142.50;;;84.00;;
40322;SDS011;26030;51.164;17.100;2023-05-03T21:48:09;130.40;;;82.60;;
40322;SDS011;26030;51.164;17.100;2023-05-03T21:53:14;131.90;;;81.00;;
40322;SDS011;26030;51.164;17.100;2023-05-03T21:58:19;136.00;;;81.90;;
40322;SDS011;26030;51.164;17.100;2023-05-03T22:03:24;122.20;;;79.40;;
40322;SDS011;26030;51.164;17.100;2023-05-03T22:08:29;118.30;;;75.80;;
40322;SDS011;26030;51.164;17.100;2023-05-03T22:13:34;119.10;;;73.70;;
40322;SDS011;26030;51.164;17.100;2023-05-03T22:19:01;114.80;;;72.90;;
40322;SDS011;26030;51.164;17.100;2023-05-03T22:24:05;111.30;;;71.40;;
40322;SDS011;26030;51.164;17.100;2023-05-03T22:29:11;115.10;;;72.70;;
40322;SDS011;26030;51.164;17.100;2023-05-03T22:34:17;108.30;;;70.60;;
40322;SDS011;26030;51.164;17.100;2023-05-03T22:39:22;107.10;;;71.40;;
40322;SDS011;26030;51.164;17.100;2023-05-03T22:44:27;107.90;;;73.60;;
40322;SDS011;26030;51.164;17.100;2023-05-03T22:49:32;104.80;;;70.80;;
40322;SDS011;26030;51.164;17.100;2023-05-03T22:54:36;101.20;;;69.90;;
40322;SDS011;26030;51.164;17.100;2023-05-03T22:59:45;98.10;;;66.40;;
40322;SDS011;26030;51.164;17.100;2023-05-03T23:04:49;98.50;;;64.60;;
40322;SDS011;26030;51.164;17.100;2023-05-03T23:10:02;97.90;;;65.90;;
40322;SDS011;26030;51.164;17.100;2023-05-03T23:15:07;99.90;;;63.80;;
40322;SDS011;26030;51.164;17.100;2023-05-03T23:20:11;92.60;;;61.10;;
40322;SDS011;26030;51.164;17.100;2023-05-03T23:25:16;84.70;;;59.00;;
40322;SDS011;26030;51.164;17.100;2023-05-03T23:30:20;87.80;;;59.60;;
40322;SDS011;26030;51.164;17.100;2023-05-03T23:35:25;79.10;;;54.20;;
40322;SDS011;26030;51.164;17.100;2023-05-03T23:40:30;81.80;;;56.00;;
40322;SDS011;26030;51.164;17.100;2023-05-03T23:45:35;82.90;;;55.60;;
40322;SDS011;26030;51.164;17.100;2023-05-03T23:50:40;80.40;;;53.50;;
40322;SDS011;26030;51.164;17.100;2023-05-03T23:55:45;84.70;;;53.40;;
